createdAt,value
2018-05-02T00:02:23.633Z,77.20
2018-05-02T00:19:21.096Z,77.90
2018-05-02T00:21:49.486Z,78.00
2018-05-02T00:24:17.143Z,78.00
2018-05-02T00:26:44.782Z,78.10
2018-05-02T00:29:13.193Z,78.30
2018-05-02T00:31:41.626Z,78.30
2018-05-02T00:34:09.307Z,78.30
2018-05-02T00:36:37.729Z,78.60
2018-05-02T00:39:05.407Z,78.40
2018-05-02T00:41:33.682Z,78.50
2018-05-02T00:44:02.127Z,78.70
2018-05-02T00:46:29.769Z,78.70
2018-05-02T00:49:09.985Z,79.30
2018-05-02T00:51:37.601Z,78.60
2018-05-02T00:54:05.231Z,78.70
2018-05-02T00:56:32.900Z,78.90
2018-05-02T00:59:00.535Z,78.90
2018-05-02T01:01:28.981Z,78.90
2018-05-02T01:03:56.948Z,78.90
2018-05-02T01:06:24.706Z,78.90
2018-05-02T01:08:53.179Z,79.00
2018-05-02T01:11:21.122Z,79.00
2018-05-02T01:13:48.769Z,79.10
2018-05-02T01:16:16.461Z,79.10
2018-05-02T01:18:44.107Z,79.00
2018-05-02T01:21:11.758Z,79.10
2018-05-02T01:23:40.167Z,79.60
2018-05-02T01:26:08.598Z,79.60
2018-05-02T01:28:36.247Z,79.60
2018-05-02T01:31:04.658Z,79.50
2018-05-02T01:33:33.076Z,79.60
2018-05-02T01:36:00.719Z,80.40
2018-05-02T01:38:28.355Z,79.70
2018-05-02T01:40:56.021Z,79.80
2018-05-02T01:43:25.297Z,80.10
2018-05-02T01:45:52.967Z,80.00
2018-05-02T01:48:20.611Z,80.10
2018-05-02T01:50:59.244Z,80.10
2018-05-02T01:53:27.121Z,80.20
2018-05-02T01:55:54.817Z,80.20
2018-05-02T01:58:22.463Z,80.40
2018-05-02T02:00:50.121Z,80.50
2018-05-02T02:03:18.610Z,80.60
2018-05-02T02:05:46.261Z,80.40
2018-05-02T02:08:13.910Z,80.60
2018-05-02T02:10:42.621Z,80.60
2018-05-02T02:13:10.319Z,80.60
2018-05-02T02:15:37.989Z,80.60
2018-05-02T02:18:06.385Z,80.80
2018-05-02T02:20:34.838Z,80.70
2018-05-02T02:23:02.493Z,80.60
2018-05-02T02:25:30.192Z,80.60
2018-05-02T02:27:58.725Z,80.40
2018-05-02T02:30:26.374Z,80.30
2018-05-02T02:32:54.782Z,80.40
2018-05-02T02:35:23.203Z,80.40
2018-05-02T02:37:50.820Z,80.40
2018-05-02T02:40:18.473Z,80.40
2018-05-02T02:42:46.093Z,80.50
2018-05-02T02:45:13.733Z,80.60
2018-05-02T02:47:42.141Z,80.60
2018-05-02T02:50:10.622Z,80.70
2018-05-02T02:52:38.256Z,80.70
2018-05-02T02:55:05.987Z,80.70
2018-05-02T02:57:33.658Z,80.70
2018-05-02T03:00:01.342Z,80.80
2018-05-02T03:02:29.058Z,80.90
2018-05-02T03:04:56.722Z,80.90
2018-05-02T03:07:24.511Z,80.80
2018-05-02T03:09:52.172Z,81.00
2018-05-02T03:12:20.600Z,81.00
2018-05-02T03:14:48.241Z,81.00
2018-05-02T03:17:15.993Z,80.90
2018-05-02T03:19:43.706Z,80.90
2018-05-02T03:22:11.394Z,81.00
2018-05-02T03:24:39.054Z,81.00
2018-05-02T03:27:06.703Z,81.00
2018-05-02T03:29:35.125Z,80.90
2018-05-02T03:32:03.544Z,81.00
2018-05-02T03:34:31.958Z,80.90
2018-05-02T03:36:59.613Z,80.90
2018-05-02T03:39:27.282Z,81.00
2018-05-02T03:41:54.940Z,80.80
2018-05-02T03:44:22.575Z,80.90
2018-05-02T03:46:50.203Z,80.80
2018-05-02T03:49:17.838Z,80.70
2018-05-02T03:51:45.496Z,80.80
2018-05-02T03:54:13.142Z,80.90
2018-05-02T03:56:40.840Z,80.90
2018-05-02T03:59:09.265Z,80.90
2018-05-02T04:01:48.889Z,81.00
2018-05-02T04:04:28.354Z,80.90
2018-05-02T04:18:50.277Z,81.00
2018-05-02T04:21:17.925Z,81.00
2018-05-02T04:23:46.325Z,81.00
2018-05-02T04:26:14.737Z,81.00
2018-05-02T04:28:43.235Z,81.00
2018-05-02T04:31:10.817Z,81.00
2018-05-02T04:33:39.227Z,81.00
2018-05-02T04:36:07.621Z,80.90
2018-05-02T04:38:36.009Z,80.90
2018-05-02T04:41:03.745Z,80.80
2018-05-02T04:43:31.335Z,80.70
2018-05-02T04:45:58.977Z,80.70
2018-05-02T04:48:26.625Z,80.80
2018-05-02T04:50:54.262Z,80.80
2018-05-02T04:53:22.669Z,80.80
2018-05-02T04:55:51.086Z,80.80
2018-05-02T04:58:18.735Z,80.70
2018-05-02T05:00:46.372Z,80.80
2018-05-02T05:03:14.102Z,80.80
2018-05-02T05:05:41.766Z,80.80
2018-05-02T05:08:09.409Z,80.70
2018-05-02T05:10:37.813Z,80.60
2018-05-02T05:13:06.265Z,80.50
2018-05-02T05:15:34.609Z,80.60
2018-05-02T05:18:02.197Z,80.60
2018-05-02T05:20:29.761Z,80.50
2018-05-02T05:22:57.361Z,80.30
2018-05-02T05:25:24.952Z,81.00
2018-05-02T05:27:52.528Z,80.00
2018-05-02T05:30:20.121Z,80.00
2018-05-02T05:32:47.692Z,79.90
2018-05-02T05:35:15.372Z,79.70
2018-05-02T05:37:42.905Z,79.50
2018-05-02T05:40:10.474Z,79.30
2018-05-02T05:42:38.066Z,79.20
2018-05-02T05:45:05.664Z,78.90
2018-05-02T05:47:33.235Z,78.70
2018-05-02T05:50:00.837Z,78.60
2018-05-02T05:52:28.437Z,78.30
2018-05-02T05:54:56.778Z,78.10
2018-05-02T05:57:24.367Z,78.10
2018-05-02T05:59:51.928Z,78.00
2018-05-02T06:02:20.293Z,77.80
2018-05-02T06:04:47.865Z,77.60
2018-05-02T06:07:15.459Z,77.50
2018-05-02T06:09:43.056Z,77.30
2018-05-02T06:12:10.651Z,77.20
2018-05-02T06:14:38.244Z,77.10
2018-05-02T06:17:06.583Z,75.80
2018-05-02T06:19:35.829Z,76.50
2018-05-02T06:22:04.189Z,76.20
2018-05-02T06:24:32.522Z,76.20
2018-05-02T06:27:00.121Z,76.20
2018-05-02T06:29:27.683Z,76.00
2018-05-02T06:31:55.318Z,75.90
2018-05-02T06:34:22.901Z,75.70
2018-05-02T06:36:50.472Z,75.40
2018-05-02T06:39:18.108Z,75.10
2018-05-02T06:41:46.446Z,74.80
2018-05-02T06:44:14.052Z,74.80
2018-05-02T06:46:41.650Z,74.80
2018-05-02T06:49:09.267Z,74.70
2018-05-02T06:51:36.839Z,74.50
2018-05-02T06:54:05.183Z,74.10
2018-05-02T06:56:32.794Z,74.10
2018-05-02T06:59:00.389Z,74.10
2018-05-02T07:01:27.952Z,74.00
2018-05-02T07:03:55.568Z,74.00
2018-05-02T07:06:23.136Z,73.80
2018-05-02T07:08:51.498Z,73.30
2018-05-02T07:11:19.101Z,73.30
2018-05-02T07:13:46.673Z,73.20
2018-05-02T07:16:14.265Z,73.00
2018-05-02T07:18:41.832Z,72.80
2018-05-02T07:21:10.201Z,72.70
2018-05-02T07:23:37.768Z,72.70
2018-05-02T07:26:05.369Z,72.30
2018-05-02T07:28:32.933Z,72.30
2018-05-02T07:31:00.532Z,71.90
2018-05-02T07:33:28.129Z,71.40
2018-05-02T07:35:55.692Z,71.00
2018-05-02T07:38:23.281Z,70.70
2018-05-02T07:40:50.898Z,70.70
2018-05-02T07:43:18.537Z,70.60
2018-05-02T07:45:46.205Z,70.60
2018-05-02T07:48:14.622Z,70.10
2018-05-02T07:50:42.306Z,70.10
2018-05-02T07:53:10.683Z,69.80
2018-05-02T07:55:38.380Z,69.70
2018-05-02T07:58:05.998Z,69.80
2018-05-02T08:00:33.633Z,69.60
2018-05-02T08:03:01.390Z,69.50
2018-05-02T08:05:29.013Z,69.10
2018-05-02T08:07:56.645Z,69.00
2018-05-02T08:10:24.250Z,68.70
2018-05-02T08:12:51.910Z,67.10
2018-05-02T08:15:19.569Z,66.90
2018-05-02T08:17:47.200Z,66.60
2018-05-02T08:20:14.848Z,66.20
2018-05-02T08:22:42.466Z,65.40
2018-05-02T08:25:10.116Z,64.90
2018-05-02T08:27:37.749Z,64.20
2018-05-02T08:30:05.402Z,63.40
2018-05-02T08:32:33.825Z,62.70
2018-05-02T08:35:01.470Z,62.60
2018-05-02T08:37:29.117Z,62.20
2018-05-02T08:39:56.779Z,62.00
2018-05-02T08:42:25.221Z,60.60
2018-05-02T08:44:52.857Z,60.50
2018-05-02T08:47:21.302Z,60.10
2018-05-02T08:49:48.956Z,60.00
2018-05-02T08:52:17.346Z,59.40
2018-05-02T08:54:44.999Z,59.30
2018-05-02T08:57:12.666Z,59.10
2018-05-02T08:59:40.305Z,59.10
2018-05-02T09:02:07.989Z,59.10
2018-05-02T09:04:35.626Z,58.90
2018-05-02T09:07:03.273Z,58.60
2018-05-02T09:09:30.953Z,58.10
2018-05-02T09:11:58.582Z,57.30
2018-05-02T09:14:26.237Z,57.00
2018-05-02T09:16:54.654Z,56.30
2018-05-02T09:19:23.094Z,56.00
2018-05-02T09:21:50.794Z,56.00
2018-05-02T09:24:18.436Z,55.90
2018-05-02T09:26:46.857Z,55.60
2018-05-02T09:29:14.512Z,55.60
2018-05-02T09:31:42.946Z,55.20
2018-05-02T09:34:10.618Z,55.20
2018-05-02T09:36:39.064Z,55.20
2018-05-02T09:39:06.742Z,55.20
2018-05-02T09:41:34.353Z,55.30
2018-05-02T09:44:02.035Z,55.20
2018-05-02T09:46:29.664Z,55.10
2018-05-02T09:48:58.081Z,54.80
2018-05-02T09:51:26.521Z,55.00
2018-05-02T09:53:54.169Z,55.00
2018-05-02T09:56:22.552Z,54.80
2018-05-02T09:58:50.203Z,54.70
2018-05-02T10:01:17.834Z,54.50
2018-05-02T10:03:45.497Z,54.50
2018-05-02T10:06:13.172Z,54.30
2018-05-02T10:08:40.841Z,54.20
2018-05-02T10:11:08.486Z,53.60
2018-05-02T10:13:36.897Z,53.70
2018-05-02T10:16:05.327Z,53.50
2018-05-02T10:18:33.007Z,53.50
2018-05-02T10:21:00.621Z,53.50
2018-05-02T10:23:29.042Z,53.50
2018-05-02T10:25:56.705Z,53.30
2018-05-02T10:28:24.387Z,53.20
2018-05-02T10:30:52.041Z,52.90
2018-05-02T10:33:20.438Z,52.80
2018-05-02T10:35:48.842Z,53.30
2018-05-02T10:38:16.468Z,52.60
2018-05-02T10:40:44.109Z,52.50
2018-05-02T10:43:11.777Z,52.20
2018-05-02T10:45:39.445Z,51.90
2018-05-02T10:48:07.110Z,51.90
2018-05-02T10:50:34.814Z,51.60
2018-05-02T10:53:02.441Z,51.60
2018-05-02T10:55:30.089Z,51.60
2018-05-02T10:57:57.713Z,51.90
2018-05-02T11:00:25.371Z,52.00
2018-05-02T11:02:53.017Z,51.90
2018-05-02T11:05:20.669Z,51.60
2018-05-02T11:07:48.351Z,51.40
2018-05-02T11:10:15.994Z,51.30
2018-05-02T11:12:43.691Z,50.90
2018-05-02T11:15:11.269Z,50.80
2018-05-02T11:17:38.870Z,50.90
2018-05-02T11:20:07.241Z,50.40
2018-05-02T11:22:35.304Z,50.40
2018-05-02T11:25:03.730Z,49.90
2018-05-02T11:27:31.368Z,49.80
2018-05-02T11:29:59.005Z,49.90
2018-05-02T11:32:26.656Z,49.40
2018-05-02T11:34:55.026Z,49.10
2018-05-02T11:37:22.698Z,49.10
2018-05-02T11:39:50.343Z,49.30
2018-05-02T11:42:18.771Z,49.60
2018-05-02T11:44:46.452Z,49.60
2018-05-02T11:47:14.699Z,50.00
2018-05-02T11:49:42.352Z,50.00
2018-05-02T11:52:09.976Z,49.90
2018-05-02T11:54:37.621Z,50.00
2018-05-02T11:57:05.274Z,50.00
2018-05-02T11:59:33.673Z,50.40
2018-05-02T12:02:02.140Z,50.40
2018-05-02T12:04:29.781Z,50.40
2018-05-02T12:06:58.199Z,50.40
2018-05-02T12:09:25.857Z,50.30
2018-05-02T12:11:53.461Z,50.60
2018-05-02T12:14:21.866Z,50.60
2018-05-02T12:16:49.561Z,50.60
2018-05-02T12:19:17.193Z,50.90
2018-05-02T12:21:44.873Z,51.00
2018-05-02T12:24:12.497Z,51.00
2018-05-02T12:26:40.145Z,50.90
2018-05-02T12:29:07.801Z,50.80
2018-05-02T12:31:35.438Z,50.80
2018-05-02T12:34:03.077Z,50.70
2018-05-02T12:36:30.702Z,51.10
2018-05-02T12:38:58.390Z,51.40
2018-05-02T12:41:26.069Z,51.30
2018-05-02T12:43:53.699Z,51.20
2018-05-02T12:46:21.342Z,51.10
2018-05-02T12:48:49.001Z,51.20
2018-05-02T12:51:16.713Z,51.00
2018-05-02T12:53:44.321Z,50.80
2018-05-02T12:56:12.115Z,50.70
2018-05-02T12:58:39.705Z,50.60
2018-05-02T13:01:07.366Z,50.80
2018-05-02T13:03:35.049Z,51.00
2018-05-02T13:06:02.696Z,50.20
2018-05-02T13:08:31.138Z,50.40
2018-05-02T13:11:22.751Z,50.40
2018-05-02T13:13:50.905Z,50.40
2018-05-02T13:16:19.395Z,50.40
2018-05-02T13:19:02.247Z,50.40
2018-05-02T13:21:29.930Z,50.20
2018-05-02T13:23:58.349Z,49.70
2018-05-02T13:26:26.011Z,49.50
2018-05-02T13:28:53.642Z,49.50
2018-05-02T13:31:21.314Z,49.30
2018-05-02T13:39:46.620Z,50.00
2018-05-02T13:42:14.279Z,49.40
2018-05-02T13:44:41.981Z,49.50
2018-05-02T13:47:09.589Z,49.70
2018-05-02T13:49:37.286Z,49.40
2018-05-02T13:52:04.933Z,49.30
2018-05-02T13:54:32.649Z,49.40
2018-05-02T13:57:00.297Z,49.40
2018-05-02T13:59:27.937Z,49.30
2018-05-02T14:01:57.110Z,49.50
2018-05-02T14:04:24.758Z,49.40
2018-05-02T14:06:53.210Z,50.00
2018-05-02T14:09:20.843Z,49.30
2018-05-02T14:11:48.481Z,49.60
2018-05-02T14:14:16.162Z,49.60
2018-05-02T14:16:43.785Z,49.50
2018-05-02T14:19:11.463Z,49.70
2018-05-02T14:21:39.147Z,48.90
2018-05-02T14:24:06.789Z,49.30
2018-05-02T14:26:35.252Z,49.40
2018-05-02T14:29:02.885Z,49.30
2018-05-02T14:31:31.325Z,49.10
2018-05-02T14:33:59.842Z,49.40
2018-05-02T14:36:27.478Z,49.30
2018-05-02T14:38:55.143Z,49.50
2018-05-02T14:41:22.781Z,49.50
2018-05-02T14:43:51.215Z,49.20
2018-05-02T14:46:18.896Z,49.30
2018-05-02T14:48:46.547Z,49.30
2018-05-02T14:51:14.186Z,49.20
2018-05-02T14:53:41.830Z,49.50
2018-05-02T14:56:10.274Z,49.70
2018-05-02T14:58:37.955Z,49.70
2018-05-02T15:01:05.581Z,49.70
2018-05-02T15:03:33.323Z,49.60
2018-05-02T15:06:00.970Z,49.70
2018-05-02T15:08:29.486Z,49.30
2018-05-02T15:10:57.963Z,48.90
2018-05-02T15:13:26.343Z,48.40
2018-05-02T15:15:53.949Z,48.40
2018-05-02T15:18:21.553Z,48.40
2018-05-02T15:20:49.160Z,48.70
2018-05-02T15:23:16.736Z,48.80
2018-05-02T15:28:38.060Z,48.90
2018-05-02T15:31:05.677Z,49.10
2018-05-02T15:33:51.646Z,49.30
2018-05-02T15:39:20.709Z,50.00
2018-05-02T15:41:48.388Z,50.00
2018-05-02T15:44:16.070Z,49.90
2018-05-02T15:46:43.715Z,50.10
2018-05-02T15:49:11.428Z,49.80
2018-05-02T15:51:39.829Z,50.10
2018-05-02T15:54:08.281Z,50.40
2018-05-02T15:56:36.001Z,50.40
2018-05-02T15:59:03.985Z,50.60
2018-05-02T16:01:31.619Z,50.60
2018-05-02T16:04:00.132Z,50.90
2018-05-02T16:06:27.724Z,50.90
2018-05-02T16:08:55.377Z,50.80
2018-05-02T16:11:23.039Z,50.90
2018-05-02T16:13:51.486Z,51.20
2018-05-02T16:16:19.995Z,51.20
2018-05-02T16:18:47.633Z,51.20
2018-05-02T16:21:15.332Z,51.20
2018-05-02T16:23:42.993Z,51.00
2018-05-02T16:26:10.685Z,51.20
2018-05-02T16:28:38.331Z,51.20
2018-05-02T16:31:06.818Z,51.50
2018-05-02T16:33:34.462Z,51.50
2018-05-02T16:36:02.113Z,51.80
2018-05-02T16:38:30.553Z,52.10
2018-05-02T16:41:03.914Z,52.10
2018-05-02T16:43:31.604Z,52.30
2018-05-02T16:45:59.256Z,52.50
2018-05-02T16:48:26.881Z,52.70
2018-05-02T16:50:54.596Z,52.70
2018-05-02T16:53:22.234Z,52.80
2018-05-02T16:55:49.923Z,53.60
2018-05-02T16:58:17.577Z,53.00
2018-05-02T17:00:45.218Z,53.30
2018-05-02T17:03:12.890Z,53.60
2018-05-02T17:05:41.282Z,53.40
2018-05-02T17:11:04.303Z,53.20
2018-05-02T17:13:31.959Z,53.10
2018-05-02T17:15:59.641Z,53.00
2018-05-02T17:18:27.278Z,53.00
2018-05-02T17:20:56.606Z,53.20
2018-05-02T17:23:24.221Z,53.20
2018-05-02T17:25:52.632Z,53.60
2018-05-02T17:28:21.357Z,53.60
2018-05-02T17:30:49.837Z,53.80
2018-05-02T17:33:17.505Z,53.80
2018-05-02T17:35:45.306Z,53.80
2018-05-02T17:38:12.961Z,54.00
2018-05-02T17:40:40.653Z,54.10
2018-05-02T17:43:09.413Z,54.20
2018-05-02T17:45:37.837Z,54.40
2018-05-02T17:48:05.614Z,54.30
2018-05-02T17:50:34.066Z,54.80
2018-05-02T17:53:01.703Z,54.70
2018-05-02T17:55:30.121Z,54.60
2018-05-02T17:58:22.403Z,54.80
2018-05-02T18:00:50.034Z,54.80
2018-05-02T18:03:17.710Z,54.90
2018-05-02T18:05:45.388Z,55.00
2018-05-02T18:08:12.981Z,55.00
2018-05-02T18:13:49.391Z,55.20
2018-05-02T18:16:17.054Z,55.20
2018-05-02T18:18:45.445Z,55.90
2018-05-02T18:21:13.110Z,55.90
2018-05-02T18:23:40.763Z,56.10
2018-05-02T18:26:08.513Z,56.30
2018-05-02T18:28:36.170Z,56.50
2018-05-02T18:31:04.570Z,56.40
2018-05-02T18:33:33.022Z,56.50
2018-05-02T18:36:00.649Z,56.50
2018-05-02T18:38:28.317Z,56.90
2018-05-02T18:40:56.591Z,57.00
2018-05-02T18:43:24.428Z,57.00
2018-05-02T18:48:48.931Z,57.10
2018-05-02T18:51:17.389Z,57.50
2018-05-02T18:53:45.060Z,57.50
2018-05-02T18:56:12.673Z,57.70
2018-05-02T18:58:40.421Z,57.70
2018-05-02T19:01:07.990Z,57.80
2018-05-02T19:03:36.444Z,57.70
2018-05-02T19:06:04.130Z,57.60
2018-05-02T19:08:32.222Z,57.60
2018-05-02T19:16:45.651Z,57.40
2018-05-02T19:19:18.814Z,57.50
2018-05-02T19:21:47.224Z,57.40
2018-05-02T19:24:15.625Z,57.30
2018-05-02T19:26:43.289Z,57.30
2018-05-02T19:29:20.910Z,57.70
2018-05-02T19:31:54.423Z,58.20
2018-05-02T19:34:22.054Z,58.80
2018-05-02T19:36:49.713Z,59.00
2018-05-02T19:39:17.342Z,59.20
2018-05-02T19:41:50.755Z,59.20
2018-05-02T19:44:18.451Z,59.10
2018-05-02T19:46:46.081Z,59.00
2018-05-02T19:49:13.801Z,58.90
2018-05-02T19:51:47.149Z,58.90
2018-05-02T19:54:14.818Z,58.90
2018-05-02T19:56:42.577Z,58.90
2018-05-02T19:59:10.347Z,59.20
2018-05-02T20:01:43.677Z,59.40
2018-05-02T20:04:12.081Z,59.60
2018-05-02T20:06:40.489Z,59.50
2018-05-02T20:09:14.815Z,59.40
2018-05-02T20:11:48.242Z,59.40
2018-05-02T20:14:15.877Z,59.30
2018-05-02T20:16:44.608Z,59.40
2018-05-02T20:19:12.369Z,59.70
2018-05-02T20:21:39.974Z,59.80
2018-05-02T20:24:07.598Z,60.30
2018-05-02T20:26:35.272Z,60.40
2018-05-02T20:29:02.963Z,60.20
2018-05-02T20:31:30.635Z,60.30
2018-05-02T20:33:58.296Z,61.00
2018-05-02T20:36:25.949Z,61.20
2018-05-02T20:38:53.610Z,61.50
2018-05-02T20:41:21.267Z,61.60
2018-05-02T20:43:48.954Z,61.50
2018-05-02T20:46:16.560Z,61.70
2018-05-02T20:48:44.975Z,63.10
2018-05-02T20:51:12.634Z,62.30
2018-05-02T20:53:40.564Z,62.50
2018-05-02T20:56:08.219Z,62.70
2018-05-02T20:58:35.838Z,62.30
2018-05-02T21:01:03.502Z,62.10
2018-05-02T21:03:51.526Z,62.30
2018-05-02T21:06:19.966Z,62.50
2018-05-02T21:08:47.618Z,62.60
2018-05-02T21:11:15.372Z,62.70
2018-05-02T21:13:43.041Z,62.90
2018-05-02T21:16:10.678Z,62.80
2018-05-02T21:18:38.314Z,62.80
2018-05-02T21:21:05.973Z,62.70
2018-05-02T21:23:33.586Z,62.70
2018-05-02T21:26:01.237Z,62.80
2018-05-02T21:28:29.645Z,62.90
2018-05-02T21:30:58.073Z,62.90
2018-05-02T21:33:25.759Z,62.80
2018-05-02T21:35:53.413Z,62.80
2018-05-02T21:38:21.086Z,62.90
2018-05-02T21:40:48.826Z,63.10
2018-05-02T21:43:16.535Z,63.40
2018-05-02T21:45:44.227Z,63.60
2018-05-02T21:48:11.858Z,64.00
2018-05-02T21:50:39.633Z,64.20
2018-05-02T21:53:07.244Z,64.60
2018-05-02T21:55:34.878Z,64.60
2018-05-02T21:58:02.538Z,64.90
2018-05-02T22:00:30.224Z,65.00
2018-05-02T22:02:58.637Z,65.60
2018-05-02T22:05:26.360Z,65.60
2018-05-02T22:07:53.999Z,65.80
2018-05-02T22:10:22.434Z,66.20
2018-05-02T22:12:50.951Z,66.40
2018-05-02T22:15:20.558Z,67.10
2018-05-02T22:23:39.473Z,66.70
2018-05-02T22:26:07.880Z,67.10
2018-05-02T22:28:36.321Z,67.30
2018-05-02T22:31:03.963Z,67.30
2018-05-02T22:33:32.573Z,67.80
2018-05-02T22:36:01.052Z,67.80
2018-05-02T22:38:28.733Z,67.80
2018-05-02T22:40:56.386Z,67.60
2018-05-02T22:43:24.769Z,67.40
2018-05-02T22:45:52.402Z,67.40
2018-05-02T22:48:20.042Z,67.70
2018-05-02T22:50:47.719Z,67.80
2018-05-02T22:53:15.406Z,68.00
2018-05-02T22:55:43.062Z,68.00
2018-05-02T22:58:10.726Z,67.90
2018-05-02T23:00:38.337Z,67.90
2018-05-02T23:03:06.069Z,67.90
2018-05-02T23:05:33.697Z,68.10
2018-05-02T23:08:01.310Z,68.10
2018-05-02T23:10:28.956Z,68.20
2018-05-02T23:12:58.219Z,68.30
2018-05-02T23:15:25.889Z,68.30
2018-05-02T23:17:54.310Z,68.70
2018-05-02T23:20:21.918Z,68.70
2018-05-02T23:22:49.585Z,68.90
2018-05-02T23:25:17.258Z,69.10
2018-05-02T23:27:45.710Z,69.30
2018-05-02T23:30:13.365Z,69.30
2018-05-02T23:32:41.011Z,69.40
2018-05-02T23:35:08.645Z,69.40
2018-05-02T23:37:36.286Z,69.80
2018-05-02T23:40:03.959Z,69.30
2018-05-02T23:42:31.630Z,69.30
2018-05-02T23:44:59.253Z,68.80
2018-05-02T23:47:26.941Z,68.80
2018-05-02T23:49:54.558Z,69.00
2018-05-02T23:52:22.217Z,69.10
2018-05-02T23:54:49.857Z,69.00
2018-05-02T23:57:17.518Z,68.90
2018-05-02T23:59:45.163Z,69.40
